Time;durP1;ratioP1;P1;durP2;ratioP2;P2;SDS_P1;SDS_P2;PMS_P1;PMS_P2;Temp;Humidity;BMP_temperature;BMP_pressure;BME280_temperature;BME280_humidity;BME280_pressure;Samples;Min_cycle;Max_cycle;Signal;HPM_P1;HPM_P2
2023/12/13 00:01:10;;;;;;;32.28;15.45;;;;;;;8.05;100.00;99760.09;10470085;28;20132;-60
2023/12/13 00:06:32;;;;;;;28.27;14.93;;;;;;;8.07;100.00;99737.72;10469807;28;20061;-61
2023/12/13 00:11:54;;;;;;;34.95;15.48;;;;;;;8.09;100.00;99730.78;10471888;28;20564;-61
2023/12/13 00:17:16;;;;;;;32.95;15.32;;;;;;;8.09;100.00;99729.00;10474931;28;20056;-62
2023/12/13 00:22:37;;;;;;;27.58;16.15;;;;;;;8.09;100.00;99715.31;10469595;28;20140;-61
2023/12/13 00:27:59;;;;;;;33.97;16.10;;;;;;;8.12;100.00;99716.03;10465460;28;20500;-60
2023/12/13 00:33:21;;;;;;;31.83;16.08;;;;;;;8.16;100.00;99719.34;10471076;28;20409;-61
2023/12/13 00:38:43;;;;;;;34.20;16.30;;;;;;;8.15;100.00;99725.38;10474049;28;20037;-61
2023/12/13 00:44:04;;;;;;;28.65;16.13;;;;;;;8.17;100.00;99721.00;10475872;28;20055;-61
2023/12/13 00:49:26;;;;;;;42.40;16.27;;;;;;;8.18;100.00;99729.56;10471694;28;20147;-60
2023/12/13 00:54:47;;;;;;;41.40;17.30;;;;;;;8.19;100.00;99721.78;10474369;28;20052;-62
2023/12/13 01:00:10;;;;;;;40.72;17.27;;;;;;;8.18;100.00;99709.81;10473736;28;20044;-60
2023/12/13 01:05:32;;;;;;;37.75;17.23;;;;;;;8.18;100.00;99705.47;10476862;28;20114;-60
2023/12/13 01:10:53;;;;;;;49.13;19.35;;;;;;;8.17;100.00;99710.69;10464060;28;20045;-61
2023/12/13 01:16:15;;;;;;;38.58;17.10;;;;;;;8.18;100.00;99720.13;10469733;28;20049;-61
2023/12/13 01:21:37;;;;;;;35.88;17.48;;;;;;;8.16;100.00;99716.75;10479538;28;20473;-60
2023/12/13 01:26:58;;;;;;;33.97;16.80;;;;;;;8.18;100.00;99717.53;10466105;28;20051;-60
2023/12/13 01:32:20;;;;;;;34.50;17.60;;;;;;;8.19;100.00;99724.34;10476160;28;20506;-60
2023/12/13 01:37:42;;;;;;;40.92;18.35;;;;;;;8.19;100.00;99724.34;10465700;28;20092;-60
2023/12/13 01:43:03;;;;;;;34.63;16.88;;;;;;;8.19;100.00;99726.94;10470934;28;20509;-61
2023/12/13 01:48:26;;;;;;;47.67;17.63;;;;;;;8.21;100.00;99719.97;10473680;28;20036;-61
2023/12/13 01:53:48;;;;;;;39.63;18.15;;;;;;;8.21;100.00;99725.13;10479625;28;20056;-61
2023/12/13 01:59:10;;;;;;;34.88;17.55;;;;;;;8.20;100.00;99722.63;10468223;28;20496;-60
2023/12/13 02:04:34;;;;;;;44.85;17.98;;;;;;;8.20;100.00;99718.31;10474118;28;20139;-60
2023/12/13 02:09:56;;;;;;;37.60;17.63;;;;;;;8.21;100.00;99719.97;10476244;28;20052;-60
2023/12/13 02:15:18;;;;;;;39.95;17.45;;;;;;;8.20;100.00;99713.16;10467649;28;20045;-60
2023/12/13 02:20:41;;;;;;;34.55;18.02;;;;;;;8.21;100.00;99719.13;10468991;28;20090;-60
2023/12/13 02:26:05;;;;;;;36.47;18.15;;;;;;;8.20;100.00;99708.00;10471942;28;20172;-60
2023/12/13 02:31:29;;;;;;;39.35;17.45;;;;;;;8.22;100.00;99719.09;10482145;28;20049;-61
2023/12/13 02:36:51;;;;;;;33.60;17.05;;;;;;;8.25;100.00;99721.59;10463018;28;20147;-61
2023/12/13 02:42:13;;;;;;;35.72;17.13;;;;;;;8.26;100.00;99717.28;10456783;28;20053;-60
2023/12/13 02:47:35;;;;;;;38.80;17.77;;;;;;;8.24;100.00;99709.59;10469086;28;20136;-60
2023/12/13 02:52:57;;;;;;;36.25;17.65;;;;;;;8.25;100.00;99703.53;10475731;28;20525;-61
2023/12/13 02:58:19;;;;;;;29.23;17.40;;;;;;;8.23;100.00;99702.72;10475574;28;20056;-61
2023/12/13 03:03:41;;;;;;;36.80;18.35;;;;;;;8.25;100.00;99700.97;10478753;28;20512;-61
2023/12/13 03:09:03;;;;;;;32.92;16.63;;;;;;;8.27;100.00;99694.03;10465286;28;20441;-60
2023/12/13 03:14:25;;;;;;;32.30;16.80;;;;;;;8.29;100.00;99692.22;10480934;28;20049;-62
2023/12/13 03:19:47;;;;;;;35.17;17.98;;;;;;;8.31;100.00;99690.44;10474236;28;20045;-61
2023/12/13 03:25:09;;;;;;;39.60;18.38;;;;;;;8.30;100.00;99693.88;10480173;28;20134;-60
2023/12/13 03:30:30;;;;;;;38.08;18.63;;;;;;;8.32;100.00;99697.25;10471018;28;20053;-60
2023/12/13 03:35:52;;;;;;;36.97;18.35;;;;;;;8.33;100.00;99698.94;10476630;28;20366;-61
2023/12/13 03:41:14;;;;;;;40.72;18.48;;;;;;;8.33;100.00;99696.38;10478207;28;20040;-61
2023/12/13 03:46:35;;;;;;;36.83;19.02;;;;;;;8.36;100.00;99693.66;10466618;28;20044;-60
2023/12/13 03:52:01;;;;;;;44.33;19.38;;;;;;;8.35;100.00;99691.97;10463374;28;20464;-61
2023/12/13 03:57:23;;;;;;;39.17;19.13;;;;;;;8.38;100.00;99683.28;10478001;28;20057;-60
2023/12/13 04:02:45;;;;;;;42.55;19.45;;;;;;;8.39;100.00;99684.97;10477056;28;20385;-60
2023/12/13 04:08:06;;;;;;;43.63;21.08;;;;;;;8.38;100.00;99678.97;10475679;28;20045;-61
2023/12/13 04:13:28;;;;;;;40.88;19.70;;;;;;;8.38;100.00;99681.56;10472979;28;20045;-60
2023/12/13 04:18:49;;;;;;;43.50;20.85;;;;;;;8.40;100.00;99684.91;10478585;28;20056;-60
2023/12/13 04:24:11;;;;;;;44.92;20.42;;;;;;;8.41;100.00;99686.56;10474272;28;20381;-61
2023/12/13 04:29:33;;;;;;;47.20;22.00;;;;;;;8.41;100.00;99680.56;10485935;28;20036;-62
2023/12/13 04:34:55;;;;;;;50.17;21.80;;;;;;;8.43;100.00;99686.50;10474252;28;20076;-61
2023/12/13 04:40:16;;;;;;;55.70;23.17;;;;;;;8.43;100.00;99679.63;10480218;28;20067;-62
2023/12/13 04:45:38;;;;;;;60.50;22.30;;;;;;;8.46;100.00;99676.91;10468484;28;20130;-62
2023/12/13 04:51:00;;;;;;;51.53;22.65;;;;;;;8.46;100.00;99679.50;10476924;28;20136;-61
2023/12/13 04:56:21;;;;;;;52.88;23.15;;;;;;;8.47;100.00;99678.63;10473658;28;20063;-61
2023/12/13 05:01:43;;;;;;;58.78;22.90;;;;;;;8.50;100.00;99681.06;10472671;28;20124;-60
2023/12/13 05:07:05;;;;;;;50.22;22.45;;;;;;;8.53;100.00;99678.38;10473481;28;20052;-60
2023/12/13 05:12:26;;;;;;;52.33;22.88;;;;;;;8.53;100.00;99686.09;10476132;28;20163;-62
2023/12/13 05:17:48;;;;;;;61.47;23.50;;;;;;;8.57;100.00;99681.66;10475476;28;20113;-59
2023/12/13 05:23:10;;;;;;;54.17;23.55;;;;;;;8.59;100.00;99680.69;10471074;28;20493;-60
2023/12/13 05:28:31;;;;;;;55.10;24.75;;;;;;;8.61;100.00;99684.03;10476252;28;20126;-59
2023/12/13 05:33:53;;;;;;;51.85;24.73;;;;;;;8.60;100.00;99687.53;10477337;28;20102;-60
2023/12/13 05:39:15;;;;;;;49.85;23.63;;;;;;;8.62;100.00;99690.88;10477819;28;20109;-60
2023/12/13 05:44:36;;;;;;;54.92;23.70;;;;;;;8.64;100.00;99689.09;10471011;28;20055;-60
2023/12/13 05:49:58;;;;;;;56.20;26.08;;;;;;;8.67;100.00;99688.09;10481615;28;20510;-60
2023/12/13 05:55:20;;;;;;;53.70;26.10;;;;;;;8.68;100.00;99694.97;10472348;28;20068;-60
2023/12/13 06:00:42;;;;;;;52.30;25.40;;;;;;;8.71;100.00;99695.66;10478308;28;20517;-60
2023/12/13 06:06:04;;;;;;;48.22;23.60;;;;;;;8.74;100.00;99702.44;10474293;28;20071;-60
2023/12/13 06:11:26;;;;;;;46.58;23.20;;;;;;;8.73;100.00;99696.47;10472825;28;20048;-59
2023/12/13 06:16:48;;;;;;;48.83;25.23;;;;;;;8.76;100.00;99698.03;10470828;28;20066;-59
2023/12/13 06:22:11;;;;;;;58.15;26.17;;;;;;;8.78;100.00;99701.41;10470427;28;20047;-61
2023/12/13 06:27:33;;;;;;;59.67;26.80;;;;;;;8.80;100.00;99705.63;10474595;28;20530;-60
2023/12/13 06:32:55;;;;;;;47.05;22.65;;;;;;;8.82;100.00;99708.13;10479276;28;20045;-60
2023/12/13 06:38:16;;;;;;;44.05;24.25;;;;;;;8.79;100.00;99714.22;10473361;28;20063;-59
2023/12/13 06:43:38;;;;;;;47.22;24.13;;;;;;;8.77;100.00;99710.88;10482217;28;20044;-60
2023/12/13 06:49:00;;;;;;;45.80;24.05;;;;;;;8.77;100.00;99705.72;10480508;28;20047;-60
2023/12/13 06:54:22;;;;;;;47.45;23.50;;;;;;;8.78;100.00;99716.88;10480281;28;20048;-60
2023/12/13 06:59:43;;;;;;;43.53;24.58;;;;;;;8.77;100.00;99718.63;10460084;28;20136;-60
2023/12/13 07:05:07;;;;;;;44.15;22.67;;;;;;;8.78;100.00;99722.88;10493393;28;20406;-60
2023/12/13 07:10:29;;;;;;;57.35;23.55;;;;;;;8.75;100.00;99724.75;10480562;28;20045;-59
2023/12/13 07:15:50;;;;;;;49.78;24.05;;;;;;;8.69;100.00;99718.09;10480253;28;20135;-60
2023/12/13 07:21:12;;;;;;;45.50;22.58;;;;;;;8.71;100.00;99726.63;10479646;28;20059;-60
2023/12/13 07:26:34;;;;;;;40.28;21.90;;;;;;;8.73;100.00;99731.72;10460618;28;20040;-60
2023/12/13 07:31:55;;;;;;;38.20;22.33;;;;;;;8.72;100.00;99740.34;10474939;28;20048;-60
2023/12/13 07:37:18;;;;;;;43.20;21.98;;;;;;;8.71;100.00;99742.09;10479546;28;20138;-60
2023/12/13 07:42:41;;;;;;;37.03;19.85;;;;;;;8.69;100.00;99738.72;10476078;28;20067;-61
2023/12/13 07:48:03;;;;;;;46.92;20.42;;;;;;;8.68;100.00;99752.50;10478026;28;20144;-61
2023/12/13 07:53:42;;;;;;;39.88;18.65;;;;;;;8.70;100.00;99750.72;10479851;28;20500;-61
2023/12/13 07:59:06;;;;;;;39.42;19.40;;;;;;;8.69;100.00;99758.50;10480009;28;20044;-60
2023/12/13 08:04:28;;;;;;;37.22;18.55;;;;;;;8.70;100.00;99765.34;10476819;28;20397;-60
2023/12/13 08:09:49;;;;;;;30.17;17.55;;;;;;;8.67;100.00;99758.59;10477169;28;20097;-60
2023/12/13 08:15:11;;;;;;;36.42;18.88;;;;;;;8.62;100.00;99768.25;10480590;28;20041;-60
2023/12/13 08:20:33;;;;;;;40.97;18.88;;;;;;;8.58;100.00;99774.41;10477651;28;20040;-60
2023/12/13 08:25:55;;;;;;;43.67;19.17;;;;;;;8.54;100.00;99775.44;10472630;28;20076;-60
2023/12/13 08:31:18;;;;;;;43.90;20.88;;;;;;;8.49;100.00;99787.66;10478746;28;20440;-61
2023/12/13 08:36:47;;;;;;;59.35;21.25;;;;;;;8.52;100.00;99787.53;10477983;28;20406;-61
2023/12/13 08:42:09;;;;;;;49.78;20.05;;;;;;;8.53;100.00;99791.81;10479128;28;20063;-60
2023/12/13 08:47:31;;;;;;;33.00;18.02;;;;;;;8.52;100.00;99792.69;10475880;28;20520;-60
2023/12/13 08:52:54;;;;;;;45.15;19.40;;;;;;;8.48;100.00;99796.28;10468717;28;20057;-60
2023/12/13 08:58:16;;;;;;;40.63;16.65;;;;;;;8.46;100.00;99803.22;10472549;28;20631;-61
2023/12/13 09:03:38;;;;;;;36.10;16.50;;;;;;;8.38;100.00;99805.28;10477110;28;20066;-60
2023/12/13 09:08:59;;;;;;;29.85;15.23;;;;;;;8.42;100.00;99819.72;10474644;28;20044;-60
2023/12/13 09:14:21;;;;;;;38.50;15.07;;;;;;;8.44;100.00;99820.47;10472054;28;20148;-61
2023/12/13 09:19:43;;;;;;;39.45;14.30;;;;;;;8.43;100.00;99823.97;10473697;28;20537;-60
2023/12/13 09:25:05;;;;;;;27.70;13.07;;;;;;;8.42;100.00;99819.72;10456729;28;20079;-60
2023/12/13 09:30:27;;;;;;;30.70;14.88;;;;;;;8.43;100.00;99826.56;10456266;28;20045;-61
2023/12/13 09:35:49;;;;;;;28.55;13.82;;;;;;;8.44;100.00;99838.53;10471667;28;20078;-60
2023/12/13 09:41:11;;;;;;;26.30;11.70;;;;;;;8.41;100.00;99837.81;10473019;28;20064;-60
2023/12/13 09:46:33;;;;;;;20.85;10.50;;;;;;;8.35;100.00;99844.03;10464603;28;20053;-59
2023/12/13 09:51:57;;;;;;;20.60;9.52;;;;;;;8.31;100.00;99839.91;10471127;28;20457;-61
2023/12/13 09:57:19;;;;;;;19.33;9.60;;;;;;;8.36;100.00;99843.16;10473573;28;20200;-60
2023/12/13 10:02:41;;;;;;;19.15;9.35;;;;;;;8.31;100.00;99852.78;10467252;28;20534;-60
2023/12/13 10:08:03;;;;;;;18.52;8.80;;;;;;;8.30;100.00;99857.97;10480952;28;20044;-60
2023/12/13 10:13:28;;;;;;;13.75;8.45;;;;;;;8.24;100.00;99864.19;10476059;28;20063;-61
2023/12/13 10:18:50;;;;;;;13.48;8.43;;;;;;;8.24;100.00;99863.34;10484115;28;20056;-60
2023/12/13 10:24:12;;;;;;;16.58;7.80;;;;;;;8.21;100.00;99866.00;10480625;28;20132;-60
2023/12/13 10:29:34;;;;;;;11.15;7.60;;;;;;;8.17;100.00;99875.59;10482460;28;20044;-60
2023/12/13 10:34:55;;;;;;;12.18;7.22;;;;;;;8.18;100.00;99870.38;10476281;28;20044;-60
2023/12/13 10:40:20;;;;;;;18.25;8.02;;;;;;;8.20;100.00;99878.06;10481368;28;20041;-61
2023/12/13 10:45:54;;;;;;;13.80;6.55;;;;;;;8.19;100.00;99886.69;10480169;28;20390;-60
2023/12/13 10:51:17;;;;;;;11.52;6.65;;;;;;;8.20;100.00;99885.81;10477096;28;20056;-60
2023/12/13 10:56:39;;;;;;;13.93;6.82;;;;;;;8.21;100.00;99884.03;10462842;28;20072;-61
2023/12/13 11:02:04;;;;;;;9.30;5.78;;;;;;;8.20;100.00;99895.25;10468325;28;20130;-60
2023/12/13 11:07:25;;;;;;;8.70;4.72;;;;;;;8.17;100.00;99909.09;10472483;28;20049;-60
2023/12/13 11:12:49;;;;;;;10.48;5.38;;;;;;;8.11;100.00;99901.59;10464131;28;20418;-60
2023/12/13 11:18:11;;;;;;;9.27;5.35;;;;;;;8.10;100.00;99912.78;10472584;28;20135;-61
2023/12/13 11:23:35;;;;;;;7.30;4.63;;;;;;;8.06;100.00;99918.91;10477915;28;20044;-60
2023/12/13 11:28:57;;;;;;;12.60;5.22;;;;;;;8.01;100.00;99913.09;10479125;22;20063;-61
2023/12/13 11:34:32;;;;;;;11.77;5.55;;;;;;;8.04;100.00;99923.28;10462165;28;20040;-60
2023/12/13 11:39:56;;;;;;;6.47;4.57;;;;;;;8.03;100.00;99921.59;10407088;28;20053;-61
2023/12/13 11:45:21;;;;;;;11.50;4.75;;;;;;;8.02;100.00;99923.34;10401574;28;20549;-62
2023/12/13 11:50:42;;;;;;;7.50;4.20;;;;;;;7.98;100.00;99928.66;10416308;28;20068;-61
2023/12/13 11:56:11;;;;;;;8.00;3.88;;;;;;;7.98;100.00;99936.38;10422923;28;20059;-61
2023/12/13 12:01:33;;;;;;;10.18;4.50;;;;;;;7.97;100.00;99935.53;10434637;28;20544;-61
2023/12/13 12:06:56;;;;;;;5.93;3.78;;;;;;;7.95;100.00;99932.16;10429742;28;20064;-61
2023/12/13 12:12:18;;;;;;;7.65;3.65;;;;;;;7.92;100.00;99955.47;10425262;28;20041;-61
2023/12/13 12:17:41;;;;;;;7.15;3.85;;;;;;;7.90;100.00;99964.97;10422008;28;20135;-61
2023/12/13 12:23:03;;;;;;;5.35;3.25;;;;;;;7.92;100.00;99962.34;10416869;28;20125;-61
2023/12/13 12:28:27;;;;;;;5.70;3.70;;;;;;;7.88;100.00;99956.44;10418440;28;20049;-62
2023/12/13 12:33:55;;;;;;;9.25;4.00;;;;;;;7.91;100.00;99961.50;10420250;28;20045;-61
2023/12/13 12:39:17;;;;;;;6.85;4.28;;;;;;;7.89;100.00;99970.19;10436747;28;20056;-61
2023/12/13 12:44:39;;;;;;;7.03;3.90;;;;;;;7.85;100.00;99972.03;10425796;28;20049;-62
2023/12/13 12:50:00;;;;;;;7.88;3.65;;;;;;;7.88;100.00;99973.63;10415087;28;20037;-62
2023/12/13 12:55:22;;;;;;;5.93;4.18;;;;;;;7.87;100.00;99974.53;10435660;28;20079;-60
2023/12/13 13:00:44;;;;;;;6.45;3.97;;;;;;;7.85;100.00;99976.31;10427014;28;20139;-61
2023/12/13 13:06:06;;;;;;;8.20;3.97;;;;;;;7.87;100.00;99977.94;10430185;28;20470;-62
2023/12/13 13:11:28;;;;;;;6.03;3.58;;;;;;;7.81;100.00;99987.59;10420970;28;20067;-62
2023/12/13 13:16:50;;;;;;;6.22;3.15;;;;;;;7.79;100.00;99999.69;10423245;28;20717;-62
2023/12/13 13:22:11;;;;;;;5.07;3.70;;;;;;;7.76;100.00;99992.06;10429051;28;20051;-62
2023/12/13 13:27:44;;;;;;;6.03;3.63;;;;;;;7.81;100.00;100005.63;10434361;28;20623;-62
2023/12/13 13:33:06;;;;;;;7.65;3.67;;;;;;;7.77;100.00;100015.19;10428811;28;20041;-62
2023/12/13 13:38:27;;;;;;;6.57;4.00;;;;;;;7.76;100.00;100016.09;10440327;28;20114;-62
2023/12/13 13:43:49;;;;;;;5.68;3.90;;;;;;;7.67;100.00;100023.25;10435277;28;20148;-62
2023/12/13 13:49:11;;;;;;;4.47;3.97;;;;;;;7.67;100.00;100026.66;10421776;28;20067;-61
2023/12/13 13:54:33;;;;;;;8.80;4.35;;;;;;;7.61;100.00;100037.16;10402625;28;20056;-62
2023/12/13 13:59:54;;;;;;;9.73;5.53;;;;;;;7.58;100.00;100044.13;10412648;28;20827;-61
2023/12/13 14:05:16;;;;;;;6.63;5.32;;;;;;;7.59;100.00;100048.38;10414104;28;20135;-61
2023/12/13 14:10:39;;;;;;;8.13;5.70;;;;;;;7.53;100.00;100051.13;10417040;28;20052;-61
2023/12/13 14:16:01;;;;;;;7.47;5.85;;;;;;;7.49;100.00;100062.44;10413559;28;20053;-62
2023/12/13 14:21:23;;;;;;;8.00;5.97;;;;;;;7.39;100.00;100066.16;10411272;28;20049;-61
2023/12/13 14:26:44;;;;;;;9.15;6.50;;;;;;;7.37;100.00;100078.22;10421944;28;20102;-61
2023/12/13 14:32:07;;;;;;;9.40;6.82;;;;;;;7.33;100.00;100080.03;10403720;28;20371;-61
2023/12/13 14:37:28;;;;;;;7.72;5.70;;;;;;;7.25;100.00;100083.72;10407540;28;20147;-61
2023/12/13 14:42:50;;;;;;;7.75;5.53;;;;;;;7.29;100.00;100103.34;10396392;28;20597;-61
2023/12/13 14:48:12;;;;;;;8.30;5.40;;;;;;;7.24;100.00;100107.75;10402950;28;20049;-61
2023/12/13 14:53:34;;;;;;;6.10;4.90;;;;;;;7.23;100.00;100116.38;10420466;28;20057;-61
2023/12/13 14:58:56;;;;;;;5.65;4.60;;;;;;;7.23;100.00;100124.09;10420996;28;20041;-62
2023/12/13 15:04:18;;;;;;;8.20;4.95;;;;;;;7.24;100.00;100136.06;10418787;28;20135;-62
2023/12/13 15:09:40;;;;;;;12.48;5.38;;;;;;;7.20;100.00;100147.34;10406415;28;20065;-62
2023/12/13 15:15:02;;;;;;;8.07;5.32;;;;;;;7.14;100.00;100159.47;10429881;28;20466;-62
2023/12/13 15:20:23;;;;;;;8.75;6.28;;;;;;;7.14;100.00;100169.75;10424516;28;20072;-61
2023/12/13 15:25:46;;;;;;;9.23;6.30;;;;;;;7.08;100.00;100177.66;10409832;28;20132;-62
2023/12/13 15:31:09;;;;;;;9.00;6.65;;;;;;;7.09;100.00;100176.75;10420978;28;20539;-62
2023/12/13 15:36:31;;;;;;;6.75;6.05;;;;;;;7.07;100.00;100191.38;10418040;28;20088;-61
2023/12/13 15:41:52;;;;;;;6.10;5.45;;;;;;;7.08;100.00;100195.66;10410498;28;20049;-62
2023/12/13 15:47:14;;;;;;;8.95;6.30;;;;;;;7.02;100.00;100203.53;10427226;28;20052;-61
2023/12/13 15:52:40;;;;;;;12.68;7.35;;;;;;;7.03;100.00;100214.66;10420174;28;20041;-62
2023/12/13 15:58:02;;;;;;;11.45;7.00;;;;;;;6.95;100.00;100225.16;10437676;28;20469;-61
2023/12/13 16:03:24;;;;;;;10.50;6.35;;;;;;;6.99;100.00;100231.91;10435250;28;20472;-61
2023/12/13 16:08:46;;;;;;;7.63;6.32;;;;;;;6.93;100.00;100241.50;10424459;28;20057;-61
2023/12/13 16:14:08;;;;;;;10.25;6.75;;;;;;;6.91;100.00;100249.25;10425716;28;20472;-62
2023/12/13 16:19:30;;;;;;;8.70;6.95;;;;;;;6.85;100.00;100259.66;10422598;28;20139;-62
2023/12/13 16:24:51;;;;;;;8.88;6.32;;;;;;;6.83;100.00;100256.28;10404855;28;20060;-62
2023/12/13 16:30:14;;;;;;;8.77;6.03;;;;;;;6.81;100.00;100262.38;10426430;28;20041;-62
2023/12/13 16:35:36;;;;;;;9.73;6.22;;;;;;;6.80;100.00;100271.81;10418396;28;20065;-62
2023/12/13 16:40:57;;;;;;;8.15;6.70;;;;;;;6.76;100.00;100283.03;10414921;28;20045;-61
2023/12/13 16:46:23;;;;;;;9.50;7.13;;;;;;;6.78;100.00;100281.28;10411356;28;20190;-61
2023/12/13 16:51:46;;;;;;;11.48;7.32;;;;;;;6.79;100.00;100285.53;10415288;28;20075;-61
2023/12/13 16:57:09;;;;;;;10.77;6.93;;;;;;;6.70;100.00;100298.59;10419075;28;20145;-61
2023/12/13 17:02:30;;;;;;;8.90;6.88;;;;;;;6.70;100.00;100306.31;10402670;28;20090;-62
2023/12/13 17:08:05;;;;;;;12.87;7.60;;;;;;;6.68;100.00;100317.53;10408026;28;20340;-61
2023/12/13 17:13:28;;;;;;;9.85;7.65;;;;;;;6.68;100.00;100328.66;10413529;28;20815;-62
2023/12/13 17:18:50;;;;;;;10.60;7.13;;;;;;;6.58;100.00;100332.28;10420841;28;20180;-62
2023/12/13 17:24:12;;;;;;;9.02;7.30;;;;;;;6.59;100.00;100339.09;10406976;28;20059;-62
2023/12/13 17:29:34;;;;;;;11.30;7.90;;;;;;;6.55;100.00;100349.50;10429123;28;23880;-61
2023/12/13 17:34:59;;;;;;;9.23;7.20;;;;;;;6.43;100.00;100363.44;10428993;28;20048;-61
2023/12/13 17:40:20;;;;;;;7.90;6.72;;;;;;;6.37;100.00;100384.16;10422064;28;20068;-62
2023/12/13 17:45:42;;;;;;;11.18;7.50;;;;;;;6.40;100.00;100394.34;10422728;28;20605;-61
2023/12/13 17:51:04;;;;;;;9.63;7.40;;;;;;;6.40;100.00;100409.78;10417670;28;20041;-61
2023/12/13 17:56:26;;;;;;;10.77;7.88;;;;;;;6.33;100.00;100408.22;10419973;28;20049;-62
2023/12/13 18:01:47;;;;;;;9.38;7.60;;;;;;;6.31;100.00;100415.09;10409038;28;20045;-61
2023/12/13 18:07:10;;;;;;;15.48;7.53;;;;;;;6.37;100.00;100429.53;10413843;28;20049;-62
2023/12/13 18:12:31;;;;;;;11.80;7.43;;;;;;;6.33;100.00;100428.75;10415615;28;20131;-62
2023/12/13 18:17:53;;;;;;;9.50;7.60;;;;;;;6.29;100.00;100447.69;10399052;28;20065;-63
2023/12/13 18:23:15;;;;;;;11.23;8.00;;;;;;;6.27;100.00;100454.56;10410402;28;20049;-60
2023/12/13 18:28:37;;;;;;;10.30;7.70;;;;;;;6.25;100.00;100470.88;10416977;28;20413;-63
2023/12/13 18:34:00;;;;;;;10.05;7.22;;;;;;;6.24;100.00;100475.19;10420949;28;20045;-60
2023/12/13 18:39:23;;;;;;;12.60;7.28;;;;;;;6.21;100.00;100490.63;10419037;28;20072;-63
2023/12/13 18:44:45;;;;;;;9.88;6.82;;;;;;;6.22;100.00;100497.47;10418524;28;20056;-63
2023/12/13 18:50:07;;;;;;;10.88;7.60;;;;;;;6.22;100.00;100507.75;10420271;28;20042;-63
2023/12/13 18:55:28;;;;;;;8.20;6.68;;;;;;;6.21;100.00;100520.63;10423325;28;20421;-63
2023/12/13 19:00:50;;;;;;;10.15;7.07;;;;;;;6.17;100.00;100524.97;10424960;28;20052;-60
2023/12/13 19:06:12;;;;;;;10.23;7.07;;;;;;;6.22;100.00;100530.88;10435428;28;20065;-61
2023/12/13 19:11:33;;;;;;;8.65;6.20;;;;;;;6.19;100.00;100533.47;10399406;28;20055;-61
2023/12/13 19:16:55;;;;;;;8.45;6.40;;;;;;;6.21;100.00;100547.13;10405295;28;20441;-61
2023/12/13 19:22:17;;;;;;;8.43;5.82;;;;;;;6.23;100.00;100560.81;10420912;28;20045;-62
2023/12/13 19:27:39;;;;;;;5.85;4.97;;;;;;;6.20;100.00;100565.16;10427703;28;20610;-60
2023/12/13 19:33:01;;;;;;;6.53;4.90;;;;;;;6.19;100.00;100582.28;10421756;28;20930;-61
2023/12/13 19:38:22;;;;;;;6.13;4.90;;;;;;;6.14;100.00;100591.78;10420573;28;20560;-61
2023/12/13 19:43:44;;;;;;;6.00;4.88;;;;;;;6.12;100.00;100598.66;10422906;28;20416;-61
2023/12/13 19:49:06;;;;;;;5.60;4.20;;;;;;;6.11;100.00;100612.38;10422766;28;20053;-61
2023/12/13 19:54:27;;;;;;;4.97;4.10;;;;;;;6.08;100.00;100628.69;10418502;28;20502;-61
2023/12/13 19:59:49;;;;;;;5.43;4.35;;;;;;;6.04;100.00;100639.03;10424479;28;20045;-61
2023/12/13 20:05:11;;;;;;;6.57;4.47;;;;;;;6.05;100.00;100640.72;10422341;28;20077;-61
2023/12/13 20:10:32;;;;;;;5.63;4.72;;;;;;;6.04;100.00;100641.59;10429424;28;20144;-61
2023/12/13 20:15:54;;;;;;;5.80;4.63;;;;;;;6.03;100.00;100656.16;10425776;28;20107;-61
2023/12/13 20:21:16;;;;;;;8.35;5.43;;;;;;;5.98;100.00;100667.38;10425550;28;20045;-61
2023/12/13 20:26:38;;;;;;;7.00;5.40;;;;;;;6.00;100.00;100661.34;10411295;28;20055;-61
2023/12/13 20:32:01;;;;;;;6.13;4.90;;;;;;;5.97;100.00;100668.22;10415709;28;20167;-61
2023/12/13 20:37:24;;;;;;;5.82;5.13;;;;;;;5.97;100.00;100681.06;10430679;28;20055;-61
2023/12/13 20:42:46;;;;;;;6.80;5.00;;;;;;;5.96;100.00;100700.78;10437902;28;20408;-61
2023/12/13 20:48:08;;;;;;;7.82;5.43;;;;;;;5.95;100.00;100708.50;10426736;28;20056;-61
2023/12/13 20:53:29;;;;;;;9.57;5.10;;;;;;;5.88;100.00;100701.72;10414974;28;20045;-61
2023/12/13 20:58:51;;;;;;;7.30;5.25;;;;;;;5.99;100.00;100717.84;10429591;28;20089;-61
2023/12/13 21:04:13;;;;;;;7.20;5.80;;;;;;;5.96;100.00;100730.72;10404892;28;20453;-61
2023/12/13 21:09:34;;;;;;;7.80;6.28;;;;;;;5.90;100.00;100741.06;10406282;28;20049;-61
2023/12/13 21:14:56;;;;;;;7.40;6.35;;;;;;;5.91;100.00;100745.34;10410265;28;20068;-61
2023/12/13 21:20:17;;;;;;;8.57;6.72;;;;;;;5.93;100.00;100751.31;10391717;28;20402;-60
2023/12/13 21:25:39;;;;;;;8.52;6.40;;;;;;;5.88;100.00;100751.38;10413268;28;20080;-61
2023/12/13 21:31:01;;;;;;;11.40;6.90;;;;;;;5.93;100.00;100759.03;10407079;28;20049;-61
2023/12/13 21:36:23;;;;;;;8.43;5.88;;;;;;;5.91;100.00;100773.59;10414312;28;20056;-60
2023/12/13 21:41:44;;;;;;;6.85;5.47;;;;;;;5.94;100.00;100794.94;10425519;28;20111;-61
2023/12/13 21:47:06;;;;;;;6.43;5.10;;;;;;;5.89;100.00;100794.16;10431258;28;20525;-61
2023/12/13 21:52:28;;;;;;;6.38;4.90;;;;;;;5.86;100.00;100790.78;10427649;28;20045;-60
2023/12/13 21:57:49;;;;;;;9.00;5.25;;;;;;;5.89;100.00;100801.00;10432320;28;20106;-61
2023/12/13 22:03:11;;;;;;;5.22;4.68;;;;;;;5.81;100.00;100811.31;10427731;28;20047;-59
2023/12/13 22:08:36;;;;;;;5.32;4.72;;;;;;;5.81;100.00;100820.75;10422470;28;20044;-60
2023/12/13 22:13:57;;;;;;;5.40;4.53;;;;;;;5.77;100.00;100821.63;10436722;28;20037;-61
2023/12/13 22:24:59;;;;;;;9.18;4.75;;;;;;;5.82;100.00;100835.28;10408837;28;20053;-61
2023/12/13 22:30:21;;;;;;;6.53;4.78;;;;;;;5.85;100.00;100841.28;10398442;28;20048;-60
2023/12/13 22:35:43;;;;;;;5.35;4.80;;;;;;;5.83;100.00;100847.28;10415483;28;20510;-61
2023/12/13 22:41:05;;;;;;;5.65;5.05;;;;;;;5.86;100.00;100862.66;10401177;28;20045;-61
2023/12/13 22:46:27;;;;;;;6.63;5.18;;;;;;;5.89;100.00;100867.75;10407019;28;20050;-61
2023/12/13 22:51:50;;;;;;;7.38;5.88;;;;;;;5.90;100.00;100879.72;10395336;28;20132;-61
2023/12/13 22:57:32;;;;;;;8.43;6.57;;;;;;;5.92;100.00;100883.13;10399133;28;20421;-61
2023/12/13 23:02:55;;;;;;;10.48;7.10;;;;;;;5.91;100.00;100894.28;10404049;28;20053;-61
2023/12/13 23:08:17;;;;;;;8.50;5.80;;;;;;;5.89;100.00;100901.13;10424020;28;20045;-61
2023/12/13 23:13:38;;;;;;;10.20;5.63;;;;;;;5.83;100.00;100901.19;10423774;28;20428;-61
2023/12/13 23:19:01;;;;;;;14.23;5.47;;;;;;;5.80;100.00;100916.59;10432993;28;20123;-61
2023/12/13 23:24:23;;;;;;;10.23;5.25;;;;;;;5.76;100.00;100922.63;10443128;28;20057;-62
2023/12/13 23:29:44;;;;;;;6.15;5.10;;;;;;;5.76;100.00;100941.47;10430516;28;20051;-61
2023/12/13 23:35:06;;;;;;;7.10;5.15;;;;;;;5.72;100.00;100956.88;10425861;28;20049;-61
2023/12/13 23:40:29;;;;;;;9.10;5.00;;;;;;;5.70;100.00;100963.75;10442797;28;20060;-61
2023/12/13 23:45:50;;;;;;;8.30;5.30;;;;;;;5.67;100.00;100968.91;10437519;28;20080;-61
2023/12/13 23:51:13;;;;;;;6.45;4.82;;;;;;;5.63;100.00;100977.50;10430600;28;20045;-61
2023/12/13 23:56:35;;;;;;;6.05;4.80;;;;;;;5.63;100.00;100978.34;10437296;28;20084;-61
